createdAt,value
2018-06-21T00:00:01.113Z,65.40
2018-06-21T00:01:01.043Z,65.30
2018-06-21T00:02:00.973Z,67.64
2018-06-21T00:03:00.903Z,65.97
2018-06-21T00:04:00.832Z,65.01
2018-06-21T00:05:00.762Z,67.32
2018-06-21T00:06:00.693Z,67.41
2018-06-21T00:07:00.624Z,68.08
2018-06-21T00:08:00.554Z,65.49
2018-06-21T00:09:00.484Z,67.99
2018-06-21T00:10:00.419Z,66.93
2018-06-21T00:11:00.345Z,64.82
2018-06-21T00:12:00.274Z,62.13
2018-06-21T00:13:00.205Z,63.19
2018-06-21T00:14:00.133Z,65.30
2018-06-21T00:15:00.071Z,63.19
2018-06-21T00:15:59.997Z,66.36
2018-06-21T00:16:59.925Z,64.15
2018-06-21T00:17:59.855Z,57.81
2018-06-21T00:18:59.786Z,58.67
2018-06-21T00:19:59.716Z,59.06
2018-06-21T00:20:59.644Z,60.11
2018-06-21T00:21:59.575Z,57.62
2018-06-21T00:22:59.506Z,56.56
2018-06-21T00:23:59.586Z,56.27
2018-06-21T00:24:59.364Z,60.40
2018-06-21T00:25:59.304Z,63.38
2018-06-21T00:26:59.225Z,63.76
2018-06-21T00:27:59.156Z,62.42
2018-06-21T00:28:59.086Z,60.40
2018-06-21T00:29:59.015Z,60.50
2018-06-21T00:30:58.949Z,59.89
2018-06-21T00:31:58.876Z,60.57
2018-06-21T00:32:58.805Z,55.47
2018-06-21T00:33:58.740Z,54.33
2018-06-21T00:34:58.666Z,52.22
2018-06-21T00:35:58.598Z,54.71
2018-06-21T00:36:58.524Z,57.21
2018-06-21T00:37:58.455Z,58.07
2018-06-21T00:38:58.384Z,56.82
2018-06-21T00:39:58.314Z,55.67
2018-06-21T00:40:58.244Z,58.17
2018-06-21T00:41:58.178Z,57.30
2018-06-21T00:42:58.106Z,58.07
2018-06-21T00:43:58.035Z,56.92
2018-06-21T00:44:57.964Z,58.36
2018-06-21T00:45:57.894Z,59.32
2018-06-21T00:46:57.824Z,57.50
2018-06-21T00:47:57.755Z,54.42
2018-06-21T00:48:57.686Z,53.56
2018-06-21T00:49:57.614Z,51.93
2018-06-21T00:50:57.545Z,49.82
2018-06-21T00:51:57.475Z,51.25
2018-06-21T00:52:57.407Z,53.17
2018-06-21T00:53:57.335Z,56.15
2018-06-21T00:54:57.265Z,52.60
2018-06-21T00:55:57.194Z,55.00
2018-06-21T00:56:57.123Z,54.23
2018-06-21T00:57:57.053Z,58.45
2018-06-21T00:58:56.985Z,52.79
2018-06-21T00:59:56.913Z,51.45
2018-06-21T01:00:56.844Z,51.54
2018-06-21T01:01:56.780Z,47.61
2018-06-21T01:02:56.704Z,47.61
2018-06-21T01:03:56.635Z,50.20
2018-06-21T01:04:56.562Z,53.66
2018-06-21T01:05:56.493Z,52.14
2018-06-21T01:06:56.422Z,53.97
2018-06-21T01:07:56.353Z,51.67
2018-06-21T01:08:56.285Z,52.24
2018-06-21T01:09:56.212Z,52.24
2018-06-21T01:10:56.143Z,52.31
2018-06-21T01:11:56.073Z,54.25
2018-06-21T01:12:56.002Z,53.46
2018-06-21T01:13:55.932Z,52.69
2018-06-21T01:14:55.863Z,51.54
2018-06-21T01:15:55.794Z,53.58
2018-06-21T01:16:55.722Z,54.25
2018-06-21T01:17:55.651Z,52.53
2018-06-21T01:18:55.584Z,53.58
2018-06-21T01:19:55.514Z,53.68
2018-06-21T01:20:55.440Z,56.24
2018-06-21T01:21:55.371Z,57.52
2018-06-21T01:22:55.301Z,60.31
2018-06-21T01:23:55.232Z,60.31
2018-06-21T01:24:55.161Z,57.01
2018-06-21T01:25:55.091Z,57.43
2018-06-21T01:27:05.287Z,51.54
2018-06-21T01:27:54.951Z,52.89
2018-06-21T01:28:55.635Z,49.72
2018-06-21T01:29:54.810Z,50.68
2018-06-21T01:30:54.740Z,53.08
2018-06-21T01:31:54.670Z,54.04
2018-06-21T01:32:54.600Z,53.94
2018-06-21T01:33:54.532Z,54.33
2018-06-21T01:34:54.460Z,50.78
2018-06-21T01:35:54.390Z,48.76
2018-06-21T01:36:54.319Z,49.72
2018-06-21T01:37:54.250Z,50.87
2018-06-21T01:38:54.179Z,53.94
2018-06-21T01:39:54.109Z,53.27
2018-06-21T01:40:54.038Z,54.04
2018-06-21T01:41:53.968Z,54.42
2018-06-21T01:42:53.898Z,53.75
2018-06-21T01:43:53.829Z,55.47
2018-06-21T01:44:53.757Z,53.94
2018-06-21T01:45:53.687Z,54.33
2018-06-21T01:46:53.617Z,56.73
2018-06-21T01:47:53.547Z,58.64
2018-06-21T01:48:53.476Z,56.92
2018-06-21T01:49:53.406Z,57.11
2018-06-21T01:50:53.336Z,55.19
2018-06-21T01:51:53.267Z,55.96
2018-06-21T01:52:53.195Z,56.92
2018-06-21T01:53:53.125Z,60.21
2018-06-21T01:54:53.055Z,61.43
2018-06-21T01:55:52.986Z,63.48
2018-06-21T01:56:52.914Z,60.95
2018-06-21T01:57:52.845Z,61.33
2018-06-21T01:58:52.775Z,61.05
2018-06-21T01:59:52.705Z,61.05
2018-06-21T02:00:52.634Z,61.14
2018-06-21T02:01:52.564Z,56.73
2018-06-21T02:02:52.495Z,60.18
2018-06-21T02:03:52.426Z,59.89
2018-06-21T02:04:52.353Z,59.03
2018-06-21T02:05:52.283Z,54.42
2018-06-21T02:06:52.214Z,53.05
2018-06-21T02:07:52.144Z,54.88
2018-06-21T02:08:52.072Z,55.45
2018-06-21T02:09:52.002Z,49.98
2018-06-21T02:10:51.935Z,48.16
2018-06-21T02:11:51.862Z,54.21
2018-06-21T02:12:51.791Z,54.97
2018-06-21T02:13:51.721Z,54.58
2018-06-21T02:14:51.651Z,54.30
2018-06-21T02:15:51.581Z,54.49
2018-06-21T02:16:51.509Z,54.58
2018-06-21T02:17:51.440Z,55.93
2018-06-21T02:18:51.369Z,56.22
2018-06-21T02:19:51.299Z,49.98
2018-06-21T02:20:51.231Z,51.04
2018-06-21T02:21:51.158Z,53.72
2018-06-21T02:22:51.089Z,53.15
2018-06-21T02:23:51.017Z,54.01
2018-06-21T02:24:50.948Z,54.30
2018-06-21T02:25:50.878Z,53.15
2018-06-21T02:26:50.806Z,55.64
2018-06-21T02:27:50.885Z,54.30
2018-06-21T02:28:50.665Z,52.86
2018-06-21T02:29:50.595Z,53.24
2018-06-21T02:30:50.526Z,54.39
2018-06-21T02:31:50.459Z,53.44
2018-06-21T02:32:50.388Z,56.12
2018-06-21T02:33:50.315Z,57.78
2018-06-21T02:34:50.245Z,60.75
2018-06-21T02:35:50.173Z,61.14
2018-06-21T02:36:50.118Z,60.28
2018-06-21T02:37:50.033Z,63.64
2018-06-21T02:38:49.962Z,61.91
2018-06-21T02:39:49.893Z,59.61
2018-06-21T02:40:49.824Z,61.52
2018-06-21T02:41:49.751Z,60.75
2018-06-21T02:42:49.688Z,60.47
2018-06-21T02:43:49.614Z,58.45
2018-06-21T02:44:49.541Z,59.61
2018-06-21T02:45:49.472Z,58.45
2018-06-21T02:46:49.404Z,57.30
2018-06-21T02:47:49.330Z,62.29
2018-06-21T02:48:49.260Z,62.96
2018-06-21T02:49:49.189Z,62.48
2018-06-21T02:50:49.121Z,58.45
2018-06-21T02:51:49.050Z,58.17
2018-06-21T02:52:48.979Z,59.22
2018-06-21T02:53:48.908Z,59.99
2018-06-21T02:54:48.841Z,60.85
2018-06-21T02:55:48.770Z,58.36
2018-06-21T02:56:48.697Z,57.97
2018-06-21T02:57:48.628Z,58.64
2018-06-21T02:58:48.565Z,60.18
2018-06-21T02:59:48.488Z,60.08
2018-06-21T03:00:48.419Z,59.03
2018-06-21T03:01:48.347Z,59.12
2018-06-21T03:02:48.277Z,61.05
2018-06-21T03:03:48.210Z,59.92
2018-06-21T03:04:48.137Z,58.55
2018-06-21T03:05:48.066Z,58.29
2018-06-21T03:06:47.997Z,58.20
2018-06-21T03:07:47.927Z,58.17
2018-06-21T03:08:47.856Z,55.89
2018-06-21T03:09:47.787Z,52.81
2018-06-21T03:10:47.718Z,55.99
2018-06-21T03:11:47.651Z,55.60
2018-06-21T03:12:47.575Z,56.46
2018-06-21T03:13:47.505Z,55.60
2018-06-21T03:14:47.437Z,53.58
2018-06-21T03:15:47.367Z,50.99
2018-06-21T03:16:47.297Z,51.28
2018-06-21T03:17:47.225Z,54.25
2018-06-21T03:18:47.156Z,54.06
2018-06-21T03:19:47.087Z,53.39
2018-06-21T03:20:47.016Z,57.23
2018-06-21T03:21:46.947Z,56.37
2018-06-21T03:22:46.877Z,55.79
2018-06-21T03:23:46.806Z,56.18
2018-06-21T03:24:46.736Z,55.79
2018-06-21T03:25:46.666Z,56.27
2018-06-21T03:26:46.597Z,55.12
2018-06-21T03:27:46.530Z,55.02
2018-06-21T03:28:46.455Z,54.25
2018-06-21T03:29:46.385Z,52.43
2018-06-21T03:30:46.316Z,54.16
2018-06-21T03:31:46.246Z,51.57
2018-06-21T03:32:46.176Z,52.91
2018-06-21T03:33:46.107Z,50.51
2018-06-21T03:34:46.037Z,47.63
2018-06-21T03:35:45.969Z,48.79
2018-06-21T03:36:45.896Z,48.79
2018-06-21T03:37:45.826Z,49.65
2018-06-21T03:38:45.757Z,45.90
2018-06-21T03:39:45.687Z,49.91
2018-06-21T03:40:45.617Z,52.98
2018-06-21T03:41:45.546Z,51.67
2018-06-21T03:42:45.477Z,54.23
2018-06-21T03:43:45.406Z,53.11
2018-06-21T03:44:45.335Z,51.28
2018-06-21T03:45:45.266Z,53.78
2018-06-21T03:46:45.196Z,53.08
2018-06-21T03:47:45.128Z,53.75
2018-06-21T03:48:45.057Z,50.49
2018-06-21T03:49:44.985Z,50.49
2018-06-21T03:50:44.916Z,54.33
2018-06-21T03:51:44.845Z,52.50
2018-06-21T03:52:44.776Z,52.69
2018-06-21T03:53:44.706Z,55.86
2018-06-21T03:54:44.635Z,55.99
2018-06-21T03:55:44.566Z,56.37
2018-06-21T03:56:44.496Z,55.86
2018-06-21T03:57:44.425Z,55.77
2018-06-21T03:58:44.355Z,56.05
2018-06-21T03:59:44.293Z,61.43
2018-06-21T04:00:44.216Z,58.58
2018-06-21T04:01:44.144Z,55.79
2018-06-21T04:02:44.076Z,56.46
2018-06-21T04:03:44.005Z,58.58
2018-06-21T04:04:43.936Z,60.78
2018-06-21T04:05:43.865Z,60.31
2018-06-21T04:06:43.802Z,60.11
2018-06-21T04:07:43.725Z,59.25
2018-06-21T04:08:43.655Z,59.16
2018-06-21T04:09:43.585Z,61.65
2018-06-21T04:10:43.516Z,57.33
2018-06-21T04:11:43.445Z,62.52
2018-06-21T04:12:43.374Z,62.04
2018-06-21T04:13:43.306Z,61.65
2018-06-21T04:14:43.235Z,64.05
2018-06-21T04:15:43.166Z,63.57
2018-06-21T04:16:43.095Z,63.86
2018-06-21T04:17:43.032Z,69.53
2018-06-21T04:18:42.961Z,60.21
2018-06-21T04:19:42.886Z,62.90
2018-06-21T04:20:42.819Z,62.71
2018-06-21T04:21:42.746Z,68.85
2018-06-21T04:22:42.676Z,69.24
2018-06-21T04:23:42.607Z,67.35
2018-06-21T04:24:42.540Z,65.23
2018-06-21T04:25:42.467Z,64.95
2018-06-21T04:26:42.397Z,64.09
2018-06-21T04:27:42.329Z,63.89
2018-06-21T04:28:42.257Z,65.20
2018-06-21T04:29:42.190Z,64.28
2018-06-21T04:30:42.119Z,63.86
2018-06-21T04:31:42.049Z,62.81
2018-06-21T04:32:41.978Z,59.28
2018-06-21T04:33:41.908Z,60.21
2018-06-21T04:34:41.839Z,62.16
2018-06-21T04:35:41.768Z,58.42
2018-06-21T04:36:41.699Z,58.80
2018-06-21T04:37:41.629Z,58.51
2018-06-21T04:38:41.559Z,58.80
2018-06-21T04:39:41.490Z,52.26
2018-06-21T04:40:41.420Z,50.05
2018-06-21T04:41:41.351Z,52.08
2018-06-21T04:42:41.283Z,55.44
2018-06-21T04:43:41.211Z,52.36
2018-06-21T04:44:41.146Z,55.63
2018-06-21T04:45:41.072Z,54.09
2018-06-21T04:46:41.004Z,55.91
2018-06-21T04:47:40.933Z,54.47
2018-06-21T04:48:40.862Z,57.29
2018-06-21T04:49:40.793Z,50.46
2018-06-21T04:50:40.723Z,50.08
2018-06-21T04:51:40.658Z,55.46
2018-06-21T04:52:40.606Z,57.77
2018-06-21T04:53:40.518Z,69.69
2018-06-21T04:54:40.446Z,64.31
2018-06-21T04:55:40.383Z,60.17
2018-06-21T04:56:40.309Z,61.91
2018-06-21T04:57:40.238Z,54.14
2018-06-21T04:58:40.172Z,57.20
2018-06-21T04:59:40.100Z,57.87
2018-06-21T05:00:40.039Z,74.63
2018-06-21T05:01:39.963Z,76.56
2018-06-21T05:02:39.892Z,72.13
2018-06-21T05:03:39.824Z,68.48
2018-06-21T05:04:39.754Z,65.97
2018-06-21T05:05:39.684Z,63.95
2018-06-21T05:06:39.618Z,67.35
2018-06-21T05:07:39.547Z,69.38
2018-06-21T05:08:39.479Z,79.77
2018-06-21T05:09:39.409Z,75.82
2018-06-21T05:10:39.341Z,72.74
2018-06-21T05:11:39.271Z,70.40
2018-06-21T05:12:39.201Z,71.20
2018-06-21T05:13:39.132Z,66.78
2018-06-21T05:14:39.064Z,64.18
2018-06-21T05:15:38.995Z,71.69
2018-06-21T05:16:38.925Z,71.20
2018-06-21T05:17:38.855Z,79.96
2018-06-21T05:18:38.787Z,80.44
2018-06-21T05:19:38.719Z,73.71
2018-06-21T05:20:38.652Z,64.28
2018-06-21T05:21:38.580Z,64.37
2018-06-21T05:22:38.512Z,62.06
2018-06-21T05:23:38.444Z,66.30
2018-06-21T05:24:38.376Z,70.05
2018-06-21T05:25:38.308Z,71.24
2018-06-21T05:26:38.238Z,80.77
2018-06-21T05:27:38.168Z,79.23
2018-06-21T05:28:38.101Z,80.68
2018-06-21T05:29:38.033Z,82.02
2018-06-21T05:30:37.963Z,84.23
2018-06-21T05:31:37.899Z,81.93
2018-06-21T05:32:37.825Z,81.06
2018-06-21T05:33:37.758Z,82.41
2018-06-21T05:34:37.688Z,90.06
2018-06-21T05:35:37.619Z,90.92
2018-06-21T05:36:37.552Z,92.08
2018-06-21T05:37:37.483Z,92.66
2018-06-21T05:38:37.415Z,93.33
2018-06-21T05:39:37.346Z,84.47
2018-06-21T05:40:37.277Z,84.95
2018-06-21T05:41:37.208Z,87.36
2018-06-21T05:42:37.141Z,88.42
2018-06-21T05:43:37.072Z,88.23
2018-06-21T05:44:37.004Z,83.94
2018-06-21T05:45:36.936Z,95.40
2018-06-21T05:46:36.869Z,99.99
2018-06-21T05:47:36.799Z,95.21
2018-06-21T05:48:36.730Z,96.27
2018-06-21T05:49:36.661Z,98.20
2018-06-21T05:50:36.595Z,99.45
2018-06-21T05:51:36.526Z,94.34
2018-06-21T05:52:36.457Z,99.99
2018-06-21T05:53:36.389Z,99.99
2018-06-21T05:54:36.322Z,99.99
2018-06-21T05:55:36.253Z,99.99
2018-06-21T05:56:36.222Z,99.99
2018-06-21T05:57:36.117Z,99.99
2018-06-21T05:58:36.051Z,99.99
2018-06-21T05:59:35.983Z,99.99
2018-06-21T06:00:35.910Z,99.99
2018-06-21T06:01:35.843Z,99.99
2018-06-21T06:02:35.776Z,99.99
2018-06-21T06:03:35.711Z,99.99
2018-06-21T06:04:35.639Z,99.99
2018-06-21T06:05:35.571Z,99.99
2018-06-21T06:06:35.503Z,99.99
2018-06-21T06:07:35.440Z,99.99
2018-06-21T06:08:35.383Z,99.99
2018-06-21T06:09:35.297Z,99.99
2018-06-21T06:10:35.230Z,99.99
2018-06-21T06:11:35.162Z,99.99
2018-06-21T06:12:35.094Z,99.99
2018-06-21T06:13:35.025Z,99.99
2018-06-21T06:14:34.957Z,99.99
2018-06-21T06:15:34.889Z,99.99
2018-06-21T06:16:34.821Z,99.99
2018-06-21T06:17:34.752Z,99.99
2018-06-21T06:18:34.684Z,99.99
2018-06-21T06:19:34.616Z,99.99
2018-06-21T06:20:34.547Z,99.99
2018-06-21T06:21:34.479Z,99.99
2018-06-21T06:22:34.411Z,99.99
2018-06-21T06:23:34.343Z,99.99
2018-06-21T06:24:34.275Z,99.99
2018-06-21T06:25:34.210Z,99.99
2018-06-21T06:26:34.138Z,99.99
2018-06-21T06:27:34.076Z,99.99
2018-06-21T06:28:34.012Z,99.99
2018-06-21T06:29:33.933Z,99.99
2018-06-21T06:30:33.866Z,99.99
2018-06-21T06:31:33.798Z,99.99
2018-06-21T06:32:33.728Z,99.99
2018-06-21T06:33:33.662Z,99.99
2018-06-21T06:34:33.602Z,99.99
2018-06-21T06:35:33.525Z,99.99
2018-06-21T06:36:33.458Z,99.99
2018-06-21T06:37:33.388Z,99.99
2018-06-21T06:38:33.323Z,99.99
2018-06-21T06:39:33.257Z,99.99
2018-06-21T06:40:33.186Z,99.99
2018-06-21T06:41:33.121Z,99.99
2018-06-21T06:42:33.050Z,99.99
2018-06-21T06:43:32.981Z,99.99
2018-06-21T06:44:32.913Z,99.99
2018-06-21T06:45:32.845Z,99.99
2018-06-21T06:46:32.777Z,99.99
2018-06-21T06:47:32.710Z,99.99
2018-06-21T06:48:32.645Z,99.99
2018-06-21T06:49:32.572Z,99.99
2018-06-21T06:50:32.507Z,99.99
2018-06-21T06:51:32.438Z,99.99
2018-06-21T06:52:32.367Z,99.99
2018-06-21T06:53:32.301Z,99.99
2018-06-21T06:54:32.321Z,99.99
2018-06-21T06:55:32.165Z,99.99
2018-06-21T06:56:32.097Z,99.99
2018-06-21T06:57:32.031Z,99.99
2018-06-21T06:58:31.962Z,99.99
2018-06-21T06:59:31.895Z,99.99
2018-06-21T07:00:31.825Z,99.99
2018-06-21T07:01:31.761Z,99.99
2018-06-21T07:02:31.691Z,99.99
2018-06-21T07:03:31.623Z,99.99
2018-06-21T07:04:31.555Z,99.99
2018-06-21T07:05:31.486Z,99.99
2018-06-21T07:06:31.418Z,99.99
2018-06-21T07:07:31.351Z,99.99
2018-06-21T07:08:31.338Z,99.99
2018-06-21T07:09:31.215Z,99.99
2018-06-21T07:10:31.148Z,99.99
2018-06-21T07:11:31.080Z,99.99
2018-06-21T07:12:31.011Z,99.99
2018-06-21T07:13:30.943Z,99.99
2018-06-21T07:14:30.945Z,99.99
2018-06-21T07:15:30.806Z,99.99
2018-06-21T07:16:30.739Z,99.99
2018-06-21T07:17:30.674Z,99.99
2018-06-21T07:18:30.603Z,99.99
2018-06-21T07:19:30.537Z,99.99
2018-06-21T07:20:30.482Z,99.99
2018-06-21T07:21:30.404Z,99.99
2018-06-21T07:22:30.333Z,99.99
2018-06-21T07:23:30.265Z,99.99
2018-06-21T07:24:30.197Z,99.99
2018-06-21T07:25:30.130Z,99.99
2018-06-21T07:26:30.063Z,99.99
2018-06-21T07:27:29.994Z,99.99
2018-06-21T07:28:29.961Z,99.99
2018-06-21T07:29:29.859Z,99.99
2018-06-21T07:30:29.792Z,99.99
2018-06-21T07:31:29.724Z,99.99
2018-06-21T07:32:29.656Z,99.99
2018-06-21T07:33:29.635Z,99.99
2018-06-21T07:34:29.523Z,99.99
2018-06-21T07:35:29.456Z,98.68
2018-06-21T07:36:29.388Z,99.99
2018-06-21T07:37:29.321Z,99.84
2018-06-21T07:38:29.253Z,99.99
2018-06-21T07:39:29.190Z,99.99
2018-06-21T07:40:29.118Z,99.99
2018-06-21T07:41:29.051Z,99.99
2018-06-21T07:42:28.984Z,99.99
2018-06-21T07:43:28.918Z,98.25
2018-06-21T07:44:28.851Z,93.02
2018-06-21T07:45:28.796Z,96.99
2018-06-21T07:46:28.726Z,96.80
2018-06-21T07:47:28.651Z,90.61
2018-06-21T07:48:28.581Z,96.80
2018-06-21T07:49:28.515Z,90.03
2018-06-21T07:50:28.448Z,79.68
2018-06-21T07:51:28.382Z,80.26
2018-06-21T07:52:28.315Z,77.26
2018-06-21T07:53:28.246Z,72.91
2018-06-21T07:54:28.179Z,72.72
2018-06-21T07:55:28.112Z,69.62
2018-06-21T07:56:28.050Z,68.30
2018-06-21T07:57:27.982Z,66.75
2018-06-21T07:58:27.913Z,65.40
2018-06-21T07:59:27.847Z,67.24
2018-06-21T08:00:27.778Z,68.98
2018-06-21T08:01:27.710Z,70.01
2018-06-21T08:02:27.646Z,71.46
2018-06-21T08:03:27.577Z,72.04
2018-06-21T08:04:27.511Z,73.01
2018-06-21T08:05:27.445Z,75.39
2018-06-21T08:06:27.377Z,77.22
2018-06-21T08:07:27.311Z,77.22
2018-06-21T08:08:27.243Z,78.77
2018-06-21T08:09:27.178Z,79.93
2018-06-21T08:10:27.110Z,80.84
2018-06-21T08:11:27.043Z,81.90
2018-06-21T08:12:26.976Z,79.29
2018-06-21T08:13:26.911Z,78.81
2018-06-21T08:14:26.847Z,76.68
2018-06-21T08:15:26.775Z,76.43
2018-06-21T08:16:26.709Z,76.04
2018-06-21T08:17:26.643Z,70.88
2018-06-21T08:18:26.575Z,69.04
2018-06-21T08:19:26.508Z,69.01
2018-06-21T08:20:26.442Z,71.66
2018-06-21T08:21:26.375Z,69.30
2018-06-21T08:22:26.309Z,69.59
2018-06-21T08:23:26.243Z,70.07
2018-06-21T08:24:26.177Z,69.49
2018-06-21T08:25:26.109Z,69.10
2018-06-21T08:26:26.042Z,69.68
2018-06-21T08:27:25.976Z,69.84
2018-06-21T08:28:25.907Z,71.30
2018-06-21T08:29:25.847Z,72.49
2018-06-21T08:30:25.778Z,73.36
2018-06-21T08:31:25.707Z,72.68
2018-06-21T08:32:25.639Z,72.91
2018-06-21T08:33:25.573Z,73.30
2018-06-21T08:34:25.512Z,71.08
2018-06-21T08:35:25.440Z,69.43
2018-06-21T08:36:25.372Z,68.85
2018-06-21T08:37:25.305Z,66.88
2018-06-21T08:38:25.238Z,66.30
2018-06-21T08:39:25.173Z,67.82
2018-06-21T08:40:25.105Z,68.24
2018-06-21T08:41:25.037Z,68.24
2018-06-21T08:42:24.970Z,68.14
2018-06-21T08:43:24.903Z,68.43
2018-06-21T08:44:24.839Z,68.91
2018-06-21T08:45:24.770Z,69.30
2018-06-21T08:46:24.702Z,69.68
2018-06-21T08:47:24.637Z,69.59
2018-06-21T08:48:24.568Z,69.01
2018-06-21T08:49:24.502Z,70.36
2018-06-21T08:50:24.435Z,71.33
2018-06-21T08:51:24.367Z,72.10
2018-06-21T08:52:24.301Z,71.84
2018-06-21T08:53:24.234Z,71.23
2018-06-21T08:54:24.167Z,72.20
2018-06-21T08:55:24.100Z,71.23
2018-06-21T08:56:24.035Z,73.07
2018-06-21T08:57:23.968Z,72.88
2018-06-21T08:58:23.966Z,75.91
2018-06-21T08:59:23.832Z,78.61
2018-06-21T09:00:23.766Z,73.10
2018-06-21T09:01:23.702Z,73.01
2018-06-21T09:02:23.632Z,73.01
2018-06-21T09:03:23.566Z,72.14
2018-06-21T09:04:23.498Z,73.68
2018-06-21T09:05:23.436Z,74.65
2018-06-21T09:06:23.366Z,74.23
2018-06-21T09:07:23.299Z,75.58
2018-06-21T09:08:23.232Z,76.20
2018-06-21T09:09:23.165Z,74.71
2018-06-21T09:10:23.099Z,76.74
2018-06-21T09:11:23.032Z,77.42
2018-06-21T09:12:22.964Z,79.16
2018-06-21T09:13:22.899Z,81.13
2018-06-21T09:14:22.831Z,81.13
2018-06-21T09:15:22.775Z,78.13
2018-06-21T09:16:22.700Z,77.55
2018-06-21T09:17:22.634Z,79.82
2018-06-21T09:18:22.564Z,79.14
2018-06-21T09:19:22.497Z,79.24
2018-06-21T09:20:22.430Z,79.62
2018-06-21T09:21:22.366Z,78.36
2018-06-21T09:22:22.298Z,78.66
2018-06-21T09:23:22.231Z,78.08
2018-06-21T09:24:22.163Z,77.24
2018-06-21T09:25:22.097Z,77.53
2018-06-21T09:26:22.032Z,75.40
2018-06-21T09:27:21.965Z,77.05
2018-06-21T09:28:21.898Z,77.05
2018-06-21T09:29:21.831Z,75.15
2018-06-21T09:30:21.765Z,75.31
2018-06-21T09:31:21.700Z,73.79
2018-06-21T09:32:21.633Z,73.79
2018-06-21T09:33:21.586Z,74.66
2018-06-21T09:34:21.501Z,71.37
2018-06-21T09:35:21.435Z,71.28
2018-06-21T09:36:21.369Z,71.28
2018-06-21T09:37:21.302Z,70.76
2018-06-21T09:38:21.237Z,72.89
2018-06-21T09:39:21.170Z,70.27
2018-06-21T09:40:21.103Z,70.76
2018-06-21T09:41:21.037Z,71.14
2018-06-21T09:42:20.971Z,72.02
2018-06-21T09:43:20.905Z,74.11
2018-06-21T09:44:20.842Z,76.14
2018-06-21T09:45:20.772Z,75.60
2018-06-21T09:46:20.707Z,76.08
2018-06-21T09:47:20.642Z,74.43
2018-06-21T09:48:20.573Z,75.02
2018-06-21T09:49:20.509Z,74.15
2018-06-21T09:50:20.442Z,74.43
2018-06-21T09:51:20.376Z,74.05
2018-06-21T09:52:20.309Z,74.28
2018-06-21T09:53:20.243Z,73.08
2018-06-21T09:54:20.176Z,72.69
2018-06-21T09:55:20.112Z,74.63
2018-06-21T09:56:20.046Z,73.82
2018-06-21T09:57:19.979Z,74.69
2018-06-21T09:58:19.914Z,75.85
2018-06-21T09:59:19.850Z,74.94
2018-06-21T10:00:19.780Z,74.30
2018-06-21T10:01:19.715Z,74.36
2018-06-21T10:02:19.647Z,73.14
2018-06-21T10:03:19.582Z,69.75
2018-06-21T10:04:19.515Z,68.95
2018-06-21T10:05:19.449Z,69.46
2018-06-21T10:06:19.386Z,70.34
2018-06-21T10:07:19.317Z,69.46
2018-06-21T10:08:19.250Z,69.11
2018-06-21T10:09:19.182Z,67.27
2018-06-21T10:10:19.117Z,67.46
2018-06-21T10:11:19.052Z,67.46
2018-06-21T10:12:18.986Z,66.30
2018-06-21T10:13:18.917Z,65.14
2018-06-21T10:14:18.851Z,65.92
2018-06-21T10:15:18.785Z,65.53
2018-06-21T10:16:18.718Z,66.69
2018-06-21T10:17:18.652Z,66.20
2018-06-21T10:18:18.587Z,66.20
2018-06-21T10:19:18.520Z,66.20
2018-06-21T10:20:18.453Z,66.40
2018-06-21T10:21:18.388Z,65.82
2018-06-21T10:22:18.321Z,66.66
2018-06-21T10:23:18.255Z,66.78
2018-06-21T10:24:18.192Z,68.05
2018-06-21T10:25:18.122Z,68.33
2018-06-21T10:26:18.056Z,69.15
2018-06-21T10:27:17.990Z,69.43
2018-06-21T10:28:17.922Z,67.88
2018-06-21T10:29:17.858Z,67.98
2018-06-21T10:30:17.791Z,69.05
2018-06-21T10:31:17.725Z,68.82
2018-06-21T10:32:17.658Z,69.21
2018-06-21T10:33:17.593Z,69.98
2018-06-21T10:34:17.526Z,69.40
2018-06-21T10:35:17.460Z,69.21
2018-06-21T10:36:17.396Z,70.56
2018-06-21T10:37:17.329Z,70.21
2018-06-21T10:38:17.261Z,70.79
2018-06-21T10:39:17.196Z,69.24
2018-06-21T10:40:17.130Z,67.88
2018-06-21T10:41:17.065Z,67.14
2018-06-21T10:42:17.002Z,68.12
2018-06-21T10:43:16.936Z,68.63
2018-06-21T10:44:16.864Z,65.37
2018-06-21T10:45:16.799Z,64.01
2018-06-21T10:46:16.733Z,62.52
2018-06-21T10:47:16.668Z,62.82
2018-06-21T10:48:16.601Z,62.10
2018-06-21T10:49:16.546Z,63.37
2018-06-21T10:50:16.471Z,64.43
2018-06-21T10:51:16.405Z,63.10
2018-06-21T10:52:16.337Z,63.01
2018-06-21T10:53:16.273Z,61.17
2018-06-21T10:54:16.207Z,62.04
2018-06-21T10:55:16.145Z,60.97
2018-06-21T10:56:16.076Z,60.75
2018-06-21T10:57:16.010Z,61.62
2018-06-21T10:58:15.945Z,61.79
2018-06-21T10:59:15.879Z,62.46
2018-06-21T11:00:15.813Z,63.14
2018-06-21T11:01:15.749Z,62.75
2018-06-21T11:02:15.682Z,64.11
2018-06-21T11:03:15.648Z,67.08
2018-06-21T11:04:15.550Z,72.75
2018-06-21T11:05:15.490Z,79.64
2018-06-21T11:06:15.420Z,89.07
2018-06-21T11:07:15.354Z,98.88
2018-06-21T11:08:15.288Z,99.99
2018-06-21T11:09:15.221Z,99.99
2018-06-21T11:10:15.156Z,99.99
2018-06-21T11:11:15.089Z,99.99
2018-06-21T11:12:15.022Z,99.99
2018-06-21T11:13:14.955Z,99.99
2018-06-21T11:14:14.887Z,99.99
2018-06-21T11:15:14.822Z,99.99
2018-06-21T11:16:14.754Z,99.99
2018-06-21T11:17:14.687Z,99.99
2018-06-21T11:18:14.620Z,99.99
2018-06-21T11:19:14.552Z,99.99
2018-06-21T11:20:14.489Z,99.99
2018-06-21T11:21:14.416Z,99.99
2018-06-21T11:22:14.349Z,99.99
2018-06-21T11:23:14.281Z,99.99
2018-06-21T11:24:14.214Z,99.99
2018-06-21T11:25:14.147Z,99.99
2018-06-21T11:26:14.080Z,99.99
2018-06-21T11:27:14.010Z,99.99
2018-06-21T11:28:13.942Z,99.99
2018-06-21T11:29:13.874Z,99.99
2018-06-21T11:30:13.808Z,99.99
2018-06-21T11:31:13.740Z,99.99
2018-06-21T11:32:13.672Z,99.99
2018-06-21T11:33:13.605Z,99.99
2018-06-21T11:34:13.537Z,99.99
2018-06-21T11:35:13.469Z,99.84
2018-06-21T11:36:13.404Z,99.99
2018-06-21T11:37:13.334Z,99.99
2018-06-21T11:38:13.307Z,99.99
2018-06-21T11:39:13.199Z,96.99
2018-06-21T11:40:13.130Z,93.85
2018-06-21T11:41:13.062Z,87.62
2018-06-21T11:42:12.996Z,82.35
2018-06-21T11:43:12.929Z,83.37
2018-06-21T11:44:12.862Z,84.82
2018-06-21T11:45:12.798Z,88.45
2018-06-21T11:46:12.730Z,86.32
2018-06-21T11:47:12.663Z,85.36
2018-06-21T11:48:12.597Z,84.88
2018-06-21T11:49:12.531Z,87.87
2018-06-21T11:50:12.464Z,91.73
2018-06-21T11:51:12.399Z,87.44
2018-06-21T11:52:12.372Z,92.50
2018-06-21T11:53:12.264Z,94.24
2018-06-21T11:54:12.198Z,97.19
2018-06-21T11:55:12.131Z,98.73
2018-06-21T11:56:12.065Z,99.99
2018-06-21T11:57:11.999Z,99.99
2018-06-21T11:58:11.931Z,99.99
2018-06-21T11:59:11.864Z,99.99
2018-06-21T12:00:11.798Z,99.99
2018-06-21T12:01:11.730Z,99.99
2018-06-21T12:02:11.663Z,99.99
2018-06-21T12:03:11.596Z,99.99
2018-06-21T12:04:11.528Z,99.99
2018-06-21T12:05:11.461Z,99.99
2018-06-21T12:06:11.393Z,99.99
2018-06-21T12:07:11.325Z,99.99
2018-06-21T12:08:11.257Z,99.99
2018-06-21T12:09:11.190Z,99.99
2018-06-21T12:10:11.122Z,99.99
2018-06-21T12:11:11.053Z,99.99
2018-06-21T12:12:10.986Z,99.99
2018-06-21T12:13:10.919Z,99.99
2018-06-21T12:14:10.878Z,99.99
2018-06-21T12:15:10.780Z,99.99
2018-06-21T12:16:10.712Z,99.99
2018-06-21T12:17:10.643Z,98.00
2018-06-21T12:18:10.575Z,98.77
2018-06-21T12:19:10.506Z,96.56
2018-06-21T12:20:10.437Z,96.22
2018-06-21T12:21:10.368Z,95.36
2018-06-21T12:22:10.301Z,99.99
2018-06-21T12:23:10.231Z,99.99
2018-06-21T12:24:10.162Z,98.34
2018-06-21T12:25:10.094Z,98.24
2018-06-21T12:26:10.051Z,97.67
2018-06-21T12:27:09.956Z,99.99
2018-06-21T12:28:09.886Z,99.99
2018-06-21T12:29:09.818Z,99.99
2018-06-21T12:30:09.754Z,99.99
2018-06-21T12:31:09.681Z,99.99
2018-06-21T12:32:09.703Z,99.99
2018-06-21T12:33:09.543Z,99.99
2018-06-21T12:34:09.476Z,99.99
2018-06-21T12:35:09.407Z,99.99
2018-06-21T12:36:09.345Z,99.99
2018-06-21T12:37:09.269Z,99.99
2018-06-21T12:38:09.236Z,99.99
2018-06-21T12:39:09.133Z,99.99
2018-06-21T12:40:09.064Z,99.99
2018-06-21T12:41:08.996Z,99.99
2018-06-21T12:42:08.935Z,99.99
2018-06-21T12:43:08.863Z,99.99
2018-06-21T12:44:08.791Z,99.99
2018-06-21T12:45:08.725Z,99.99
2018-06-21T12:46:08.658Z,85.82
2018-06-21T12:47:08.590Z,85.42
2018-06-21T12:48:08.526Z,76.33
2018-06-21T12:49:08.459Z,80.96
2018-06-21T12:50:08.393Z,76.64
2018-06-21T12:51:08.329Z,77.42